sensor_id;sensor_type;location;lat;lon;timestamp;temperature;humidity
41447;DHT22;27185;52.040;4.490;2023-01-28T00:00:38;6.00;99.90
41447;DHT22;27185;52.040;4.490;2023-01-28T00:03:23;5.90;99.90
41447;DHT22;27185;52.040;4.490;2023-01-28T00:06:12;5.90;99.90
41447;DHT22;27185;52.040;4.490;2023-01-28T00:08:58;6.00;99.90
41447;DHT22;27185;52.040;4.490;2023-01-28T00:11:44;6.00;99.90
41447;DHT22;27185;52.040;4.490;2023-01-28T00:14:29;5.90;99.90
41447;DHT22;27185;52.040;4.490;2023-01-28T00:17:15;5.90;99.90
41447;DHT22;27185;52.040;4.490;2023-01-28T00:20:01;5.90;99.90
41447;DHT22;27185;52.040;4.490;2023-01-28T00:22:47;6.00;99.90
41447;DHT22;27185;52.040;4.490;2023-01-28T00:25:33;5.90;99.90
41447;DHT22;27185;52.040;4.490;2023-01-28T00:28:19;5.90;99.90
41447;DHT22;27185;52.040;4.490;2023-01-28T00:31:10;5.90;99.90
41447;DHT22;27185;52.040;4.490;2023-01-28T00:33:56;5.90;99.90
41447;DHT22;27185;52.040;4.490;2023-01-28T00:36:42;5.90;99.90
41447;DHT22;27185;52.040;4.490;2023-01-28T00:39:29;6.00;99.90
41447;DHT22;27185;52.040;4.490;2023-01-28T00:42:14;6.00;99.90
41447;DHT22;27185;52.040;4.490;2023-01-28T00:45:00;5.90;99.90
41447;DHT22;27185;52.040;4.490;2023-01-28T00:47:46;6.00;99.90
41447;DHT22;27185;52.040;4.490;2023-01-28T00:50:32;5.90;99.90
41447;DHT22;27185;52.040;4.490;2023-01-28T00:53:18;6.00;99.90
41447;DHT22;27185;52.040;4.490;2023-01-28T00:56:05;5.90;99.90
41447;DHT22;27185;52.040;4.490;2023-01-28T00:58:51;6.00;99.90
41447;DHT22;27185;52.040;4.490;2023-01-28T01:01:37;6.00;99.90
41447;DHT22;27185;52.040;4.490;2023-01-28T01:04:22;6.00;99.90
41447;DHT22;27185;52.040;4.490;2023-01-28T01:07:11;6.00;99.90
41447;DHT22;27185;52.040;4.490;2023-01-28T01:09:59;5.90;99.90
41447;DHT22;27185;52.040;4.490;2023-01-28T01:12:46;5.90;99.90
41447;DHT22;27185;52.040;4.490;2023-01-28T01:15:32;6.00;99.90
41447;DHT22;27185;52.040;4.490;2023-01-28T01:18:18;6.00;99.90
41447;DHT22;27185;52.040;4.490;2023-01-28T01:21:08;6.00;99.90
41447;DHT22;27185;52.040;4.490;2023-01-28T01:23:53;6.00;99.90
41447;DHT22;27185;52.040;4.490;2023-01-28T01:26:39;6.00;99.90
41447;DHT22;27185;52.040;4.490;2023-01-28T01:29:24;5.90;99.90
41447;DHT22;27185;52.040;4.490;2023-01-28T01:32:10;5.90;99.90
41447;DHT22;27185;52.040;4.490;2023-01-28T01:34:56;5.90;99.90
41447;DHT22;27185;52.040;4.490;2023-01-28T01:37:43;5.90;99.90
41447;DHT22;27185;52.040;4.490;2023-01-28T01:40:29;5.90;99.90
41447;DHT22;27185;52.040;4.490;2023-01-28T01:43:21;5.90;99.90
41447;DHT22;27185;52.040;4.490;2023-01-28T01:46:07;5.90;99.90
41447;DHT22;27185;52.040;4.490;2023-01-28T01:48:54;5.90;99.90
41447;DHT22;27185;52.040;4.490;2023-01-28T01:51:42;5.80;99.90
41447;DHT22;27185;52.040;4.490;2023-01-28T01:54:30;5.80;99.90
41447;DHT22;27185;52.040;4.490;2023-01-28T01:57:23;5.80;99.90
41447;DHT22;27185;52.040;4.490;2023-01-28T02:00:11;5.80;99.90
41447;DHT22;27185;52.040;4.490;2023-01-28T02:02:56;5.80;99.90
41447;DHT22;27185;52.040;4.490;2023-01-28T02:05:43;5.80;99.90
41447;DHT22;27185;52.040;4.490;2023-01-28T02:08:29;5.70;99.90
41447;DHT22;27185;52.040;4.490;2023-01-28T02:11:15;5.70;99.90
41447;DHT22;27185;52.040;4.490;2023-01-28T02:14:03;5.70;99.90
41447;DHT22;27185;52.040;4.490;2023-01-28T02:16:49;5.70;99.90
41447;DHT22;27185;52.040;4.490;2023-01-28T02:19:57;5.70;99.90
41447;DHT22;27185;52.040;4.490;2023-01-28T02:32:30;5.60;99.90
41447;DHT22;27185;52.040;4.490;2023-01-28T02:35:30;5.60;99.90
41447;DHT22;27185;52.040;4.490;2023-01-28T02:38:27;5.60;99.90
41447;DHT22;27185;52.040;4.490;2023-01-28T02:41:25;5.60;99.90
41447;DHT22;27185;52.040;4.490;2023-01-28T02:44:13;5.60;99.90
41447;DHT22;27185;52.040;4.490;2023-01-28T02:46:58;5.50;99.90
41447;DHT22;27185;52.040;4.490;2023-01-28T02:50:06;5.50;99.90
41447;DHT22;27185;52.040;4.490;2023-01-28T02:59:44;5.60;99.90
41447;DHT22;27185;52.040;4.490;2023-01-28T03:02:35;5.60;99.90
41447;DHT22;27185;52.040;4.490;2023-01-28T03:05:35;5.60;99.90
41447;DHT22;27185;52.040;4.490;2023-01-28T03:08:23;5.60;99.90
41447;DHT22;27185;52.040;4.490;2023-01-28T03:11:31;5.60;99.90
41447;DHT22;27185;52.040;4.490;2023-01-28T03:14:36;5.60;99.90
41447;DHT22;27185;52.040;4.490;2023-01-28T03:21:05;5.60;99.90
41447;DHT22;27185;52.040;4.490;2023-01-28T03:24:25;5.60;99.90
41447;DHT22;27185;52.040;4.490;2023-01-28T03:27:55;5.60;99.90
41447;DHT22;27185;52.040;4.490;2023-01-28T03:31:10;5.60;99.90
41447;DHT22;27185;52.040;4.490;2023-01-28T03:34:16;5.60;99.90
41447;DHT22;27185;52.040;4.490;2023-01-28T03:37:21;5.50;99.90
41447;DHT22;27185;52.040;4.490;2023-01-28T03:40:08;5.50;99.90
41447;DHT22;27185;52.040;4.490;2023-01-28T03:42:54;5.60;99.90
41447;DHT22;27185;52.040;4.490;2023-01-28T03:45:41;5.50;99.90
41447;DHT22;27185;52.040;4.490;2023-01-28T03:48:27;5.50;99.90
41447;DHT22;27185;52.040;4.490;2023-01-28T03:51:13;5.50;99.90
41447;DHT22;27185;52.040;4.490;2023-01-28T03:53:59;5.50;99.90
41447;DHT22;27185;52.040;4.490;2023-01-28T03:56:45;5.50;99.90
41447;DHT22;27185;52.040;4.490;2023-01-28T03:59:31;5.50;99.90
41447;DHT22;27185;52.040;4.490;2023-01-28T04:02:19;5.50;99.90
41447;DHT22;27185;52.040;4.490;2023-01-28T04:05:07;5.50;99.90
41447;DHT22;27185;52.040;4.490;2023-01-28T04:07:56;5.60;99.90
41447;DHT22;27185;52.040;4.490;2023-01-28T04:10:42;5.50;99.90
41447;DHT22;27185;52.040;4.490;2023-01-28T04:13:28;5.60;99.90
41447;DHT22;27185;52.040;4.490;2023-01-28T04:16:15;5.60;99.90
41447;DHT22;27185;52.040;4.490;2023-01-28T04:19:01;5.50;99.90
41447;DHT22;27185;52.040;4.490;2023-01-28T04:21:46;5.50;99.90
41447;DHT22;27185;52.040;4.490;2023-01-28T04:24:33;5.60;99.90
41447;DHT22;27185;52.040;4.490;2023-01-28T04:27:19;5.60;99.90
41447;DHT22;27185;52.040;4.490;2023-01-28T04:30:05;5.60;99.90
41447;DHT22;27185;52.040;4.490;2023-01-28T04:32:50;5.60;99.90
41447;DHT22;27185;52.040;4.490;2023-01-28T04:35:36;5.50;99.90
41447;DHT22;27185;52.040;4.490;2023-01-28T04:38:22;5.50;99.90
41447;DHT22;27185;52.040;4.490;2023-01-28T04:41:07;5.60;99.90
41447;DHT22;27185;52.040;4.490;2023-01-28T04:43:53;5.50;99.90
41447;DHT22;27185;52.040;4.490;2023-01-28T04:46:38;5.60;99.90
41447;DHT22;27185;52.040;4.490;2023-01-28T04:49:24;5.60;99.90
41447;DHT22;27185;52.040;4.490;2023-01-28T04:52:10;5.60;99.90
41447;DHT22;27185;52.040;4.490;2023-01-28T04:54:55;5.60;99.90
41447;DHT22;27185;52.040;4.490;2023-01-28T04:57:41;5.60;99.90
41447;DHT22;27185;52.040;4.490;2023-01-28T05:00:26;5.60;99.90
41447;DHT22;27185;52.040;4.490;2023-01-28T05:03:12;5.70;99.90
41447;DHT22;27185;52.040;4.490;2023-01-28T05:05:58;5.70;99.90
41447;DHT22;27185;52.040;4.490;2023-01-28T05:08:43;5.70;99.90
41447;DHT22;27185;52.040;4.490;2023-01-28T05:11:30;5.70;99.90
41447;DHT22;27185;52.040;4.490;2023-01-28T05:14:16;5.70;99.90
41447;DHT22;27185;52.040;4.490;2023-01-28T05:17:01;5.70;99.90
41447;DHT22;27185;52.040;4.490;2023-01-28T05:19:47;5.60;99.90
41447;DHT22;27185;52.040;4.490;2023-01-28T05:22:32;5.70;99.90
41447;DHT22;27185;52.040;4.490;2023-01-28T05:25:18;5.60;99.90
41447;DHT22;27185;52.040;4.490;2023-01-28T05:28:04;5.70;99.90
41447;DHT22;27185;52.040;4.490;2023-01-28T05:30:50;5.70;99.90
41447;DHT22;27185;52.040;4.490;2023-01-28T05:33:36;5.70;99.90
41447;DHT22;27185;52.040;4.490;2023-01-28T05:36:21;5.60;99.90
41447;DHT22;27185;52.040;4.490;2023-01-28T05:39:07;5.60;99.90
41447;DHT22;27185;52.040;4.490;2023-01-28T05:41:52;5.60;99.90
41447;DHT22;27185;52.040;4.490;2023-01-28T05:44:38;5.70;99.90
41447;DHT22;27185;52.040;4.490;2023-01-28T05:47:23;5.60;99.90
41447;DHT22;27185;52.040;4.490;2023-01-28T05:50:12;5.60;99.90
41447;DHT22;27185;52.040;4.490;2023-01-28T05:52:57;5.60;99.90
41447;DHT22;27185;52.040;4.490;2023-01-28T05:55:50;5.60;99.90
41447;DHT22;27185;52.040;4.490;2023-01-28T05:58:35;5.60;99.90
41447;DHT22;27185;52.040;4.490;2023-01-28T06:01:21;5.60;99.90
41447;DHT22;27185;52.040;4.490;2023-01-28T06:04:06;5.60;99.90
41447;DHT22;27185;52.040;4.490;2023-01-28T06:06:52;5.60;99.90
41447;DHT22;27185;52.040;4.490;2023-01-28T06:09:38;5.60;99.90
41447;DHT22;27185;52.040;4.490;2023-01-28T06:12:24;5.60;99.90
41447;DHT22;27185;52.040;4.490;2023-01-28T06:15:10;5.60;99.90
41447;DHT22;27185;52.040;4.490;2023-01-28T06:17:55;5.60;99.90
41447;DHT22;27185;52.040;4.490;2023-01-28T06:20:41;5.60;99.90
41447;DHT22;27185;52.040;4.490;2023-01-28T06:23:26;5.60;99.90
41447;DHT22;27185;52.040;4.490;2023-01-28T06:26:12;5.60;99.90
41447;DHT22;27185;52.040;4.490;2023-01-28T06:28:57;5.60;99.90
41447;DHT22;27185;52.040;4.490;2023-01-28T06:31:43;5.60;99.90
41447;DHT22;27185;52.040;4.490;2023-01-28T06:34:29;5.60;99.90
41447;DHT22;27185;52.040;4.490;2023-01-28T06:37:14;5.60;99.90
41447;DHT22;27185;52.040;4.490;2023-01-28T06:40:00;5.60;99.90
41447;DHT22;27185;52.040;4.490;2023-01-28T06:42:45;5.60;99.90
41447;DHT22;27185;52.040;4.490;2023-01-28T06:45:32;5.60;99.90
41447;DHT22;27185;52.040;4.490;2023-01-28T06:48:17;5.60;99.90
41447;DHT22;27185;52.040;4.490;2023-01-28T06:51:03;5.60;99.90
41447;DHT22;27185;52.040;4.490;2023-01-28T06:53:49;5.60;99.90
41447;DHT22;27185;52.040;4.490;2023-01-28T06:56:34;5.60;99.90
41447;DHT22;27185;52.040;4.490;2023-01-28T06:59:20;5.50;99.90
41447;DHT22;27185;52.040;4.490;2023-01-28T07:02:06;5.50;99.90
41447;DHT22;27185;52.040;4.490;2023-01-28T07:04:51;5.50;99.90
41447;DHT22;27185;52.040;4.490;2023-01-28T07:07:37;5.50;99.90
41447;DHT22;27185;52.040;4.490;2023-01-28T07:10:22;5.40;99.90
41447;DHT22;27185;52.040;4.490;2023-01-28T07:13:09;5.40;99.90
41447;DHT22;27185;52.040;4.490;2023-01-28T07:15:54;5.40;99.90
41447;DHT22;27185;52.040;4.490;2023-01-28T07:18:40;5.40;99.90
41447;DHT22;27185;52.040;4.490;2023-01-28T07:21:25;5.40;99.90
41447;DHT22;27185;52.040;4.490;2023-01-28T07:24:11;5.30;99.90
41447;DHT22;27185;52.040;4.490;2023-01-28T07:26:56;5.30;99.90
41447;DHT22;27185;52.040;4.490;2023-01-28T07:29:42;5.30;99.90
41447;DHT22;27185;52.040;4.490;2023-01-28T07:32:28;5.30;99.90
41447;DHT22;27185;52.040;4.490;2023-01-28T07:35:13;5.20;99.90
41447;DHT22;27185;52.040;4.490;2023-01-28T07:38:00;5.30;99.90
41447;DHT22;27185;52.040;4.490;2023-01-28T07:40:46;5.20;99.90
41447;DHT22;27185;52.040;4.490;2023-01-28T07:43:31;5.20;99.90
41447;DHT22;27185;52.040;4.490;2023-01-28T07:46:17;5.10;99.90
41447;DHT22;27185;52.040;4.490;2023-01-28T07:49:02;5.10;99.90
41447;DHT22;27185;52.040;4.490;2023-01-28T07:51:48;5.00;99.90
41447;DHT22;27185;52.040;4.490;2023-01-28T07:54:35;4.90;99.90
41447;DHT22;27185;52.040;4.490;2023-01-28T07:57:20;4.90;99.90
41447;DHT22;27185;52.040;4.490;2023-01-28T08:00:11;4.80;99.90
41447;DHT22;27185;52.040;4.490;2023-01-28T08:03:03;4.70;99.90
41447;DHT22;27185;52.040;4.490;2023-01-28T08:05:51;4.80;99.90
41447;DHT22;27185;52.040;4.490;2023-01-28T08:08:37;4.70;99.90
41447;DHT22;27185;52.040;4.490;2023-01-28T08:11:23;4.70;99.90
41447;DHT22;27185;52.040;4.490;2023-01-28T08:14:10;4.80;99.90
41447;DHT22;27185;52.040;4.490;2023-01-28T08:16:56;4.80;99.90
41447;DHT22;27185;52.040;4.490;2023-01-28T08:19:42;4.90;99.90
41447;DHT22;27185;52.040;4.490;2023-01-28T08:22:28;5.00;99.90
41447;DHT22;27185;52.040;4.490;2023-01-28T08:25:13;5.00;99.90
41447;DHT22;27185;52.040;4.490;2023-01-28T08:27:59;5.10;99.90
41447;DHT22;27185;52.040;4.490;2023-01-28T08:30:45;5.20;99.90
41447;DHT22;27185;52.040;4.490;2023-01-28T08:33:31;5.20;99.90
41447;DHT22;27185;52.040;4.490;2023-01-28T08:36:17;5.30;99.90
41447;DHT22;27185;52.040;4.490;2023-01-28T08:39:02;5.40;99.90
41447;DHT22;27185;52.040;4.490;2023-01-28T08:41:48;5.40;99.90
41447;DHT22;27185;52.040;4.490;2023-01-28T08:44:33;5.40;99.90
41447;DHT22;27185;52.040;4.490;2023-01-28T08:47:19;5.40;99.90
41447;DHT22;27185;52.040;4.490;2023-01-28T08:50:05;5.50;99.90
41447;DHT22;27185;52.040;4.490;2023-01-28T08:52:55;5.50;99.90
41447;DHT22;27185;52.040;4.490;2023-01-28T08:55:42;5.50;99.90
41447;DHT22;27185;52.040;4.490;2023-01-28T08:58:27;5.40;99.90
41447;DHT22;27185;52.040;4.490;2023-01-28T09:01:13;5.40;99.90
41447;DHT22;27185;52.040;4.490;2023-01-28T09:03:59;5.40;99.90
41447;DHT22;27185;52.040;4.490;2023-01-28T09:06:44;5.30;99.90
41447;DHT22;27185;52.040;4.490;2023-01-28T09:09:30;5.30;99.90
41447;DHT22;27185;52.040;4.490;2023-01-28T09:12:15;5.30;99.90
41447;DHT22;27185;52.040;4.490;2023-01-28T09:15:01;5.30;99.90
41447;DHT22;27185;52.040;4.490;2023-01-28T09:17:47;5.40;99.90
41447;DHT22;27185;52.040;4.490;2023-01-28T09:20:33;5.40;99.90
41447;DHT22;27185;52.040;4.490;2023-01-28T09:23:19;5.50;99.90
41447;DHT22;27185;52.040;4.490;2023-01-28T09:26:05;5.60;99.90
41447;DHT22;27185;52.040;4.490;2023-01-28T09:28:51;5.70;99.90
41447;DHT22;27185;52.040;4.490;2023-01-28T09:31:37;5.80;99.90
41447;DHT22;27185;52.040;4.490;2023-01-28T09:34:22;5.90;99.90
41447;DHT22;27185;52.040;4.490;2023-01-28T09:37:08;5.90;99.90
41447;DHT22;27185;52.040;4.490;2023-01-28T09:39:53;6.00;99.90
41447;DHT22;27185;52.040;4.490;2023-01-28T09:45:49;6.20;99.90
41447;DHT22;27185;52.040;4.490;2023-01-28T09:48:39;6.20;99.90
41447;DHT22;27185;52.040;4.490;2023-01-28T09:54:40;6.20;99.90
41447;DHT22;27185;52.040;4.490;2023-01-28T09:57:44;6.20;99.90
41447;DHT22;27185;52.040;4.490;2023-01-28T10:00:41;6.10;99.90
41447;DHT22;27185;52.040;4.490;2023-01-28T10:10:08;5.90;99.90
41447;DHT22;27185;52.040;4.490;2023-01-28T10:13:04;5.80;99.90
41447;DHT22;27185;52.040;4.490;2023-01-28T10:16:37;5.80;99.90
41447;DHT22;27185;52.040;4.490;2023-01-28T10:19:32;5.70;99.90
41447;DHT22;27185;52.040;4.490;2023-01-28T10:22:23;5.70;99.90
41447;DHT22;27185;52.040;4.490;2023-01-28T10:25:22;5.60;99.90
41447;DHT22;27185;52.040;4.490;2023-01-28T10:28:17;5.60;99.90
41447;DHT22;27185;52.040;4.490;2023-01-28T10:31:11;5.50;99.90
41447;DHT22;27185;52.040;4.490;2023-01-28T10:33:58;5.50;99.90
41447;DHT22;27185;52.040;4.490;2023-01-28T10:36:45;5.50;99.90
41447;DHT22;27185;52.040;4.490;2023-01-28T10:39:31;5.50;99.90
41447;DHT22;27185;52.040;4.490;2023-01-28T10:42:26;5.60;99.90
41447;DHT22;27185;52.040;4.490;2023-01-28T10:48:31;5.60;99.90
41447;DHT22;27185;52.040;4.490;2023-01-28T10:51:17;5.70;99.90
41447;DHT22;27185;52.040;4.490;2023-01-28T10:54:21;5.60;99.90
41447;DHT22;27185;52.040;4.490;2023-01-28T10:57:13;5.70;99.90
41447;DHT22;27185;52.040;4.490;2023-01-28T11:03:04;5.70;99.90
41447;DHT22;27185;52.040;4.490;2023-01-28T11:05:54;5.70;99.90
41447;DHT22;27185;52.040;4.490;2023-01-28T11:08:43;5.80;99.90
41447;DHT22;27185;52.040;4.490;2023-01-28T11:11:29;5.80;99.90
41447;DHT22;27185;52.040;4.490;2023-01-28T11:14:23;5.80;99.90
41447;DHT22;27185;52.040;4.490;2023-01-28T11:17:15;5.90;99.90
41447;DHT22;27185;52.040;4.490;2023-01-28T11:20:11;5.90;99.90
41447;DHT22;27185;52.040;4.490;2023-01-28T11:22:57;6.00;99.90
41447;DHT22;27185;52.040;4.490;2023-01-28T11:25:43;6.00;99.90
41447;DHT22;27185;52.040;4.490;2023-01-28T11:28:29;6.00;99.90
41447;DHT22;27185;52.040;4.490;2023-01-28T11:31:17;6.10;99.90
41447;DHT22;27185;52.040;4.490;2023-01-28T11:34:04;6.10;99.90
41447;DHT22;27185;52.040;4.490;2023-01-28T11:36:52;6.10;99.90
41447;DHT22;27185;52.040;4.490;2023-01-28T11:39:38;6.10;99.90
41447;DHT22;27185;52.040;4.490;2023-01-28T11:42:24;6.10;99.90
41447;DHT22;27185;52.040;4.490;2023-01-28T11:45:18;6.20;99.90
41447;DHT22;27185;52.040;4.490;2023-01-28T11:48:41;6.20;99.90
41447;DHT22;27185;52.040;4.490;2023-01-28T11:51:52;6.20;99.90
41447;DHT22;27185;52.040;4.490;2023-01-28T12:01:38;6.30;99.90
41447;DHT22;27185;52.040;4.490;2023-01-28T12:07:53;6.30;99.90
41447;DHT22;27185;52.040;4.490;2023-01-28T12:13:57;6.30;99.90
41447;DHT22;27185;52.040;4.490;2023-01-28T12:17:07;6.40;99.90
41447;DHT22;27185;52.040;4.490;2023-01-28T12:26:12;6.50;99.90
41447;DHT22;27185;52.040;4.490;2023-01-28T12:32:25;6.60;99.90
41447;DHT22;27185;52.040;4.490;2023-01-28T12:38:51;7.00;99.90
41447;DHT22;27185;52.040;4.490;2023-01-28T12:41:43;7.20;99.90
41447;DHT22;27185;52.040;4.490;2023-01-28T12:44:39;7.30;99.90
41447;DHT22;27185;52.040;4.490;2023-01-28T12:47:34;7.50;99.90
41447;DHT22;27185;52.040;4.490;2023-01-28T12:50:33;7.60;99.90
41447;DHT22;27185;52.040;4.490;2023-01-28T12:53:35;7.60;99.90
41447;DHT22;27185;52.040;4.490;2023-01-28T12:56:27;7.70;99.90
41447;DHT22;27185;52.040;4.490;2023-01-28T12:59:38;7.60;99.90
41447;DHT22;27185;52.040;4.490;2023-01-28T13:02:33;7.60;99.90
41447;DHT22;27185;52.040;4.490;2023-01-28T13:05:24;7.70;99.90
41447;DHT22;27185;52.040;4.490;2023-01-28T13:08:24;7.70;99.90
41447;DHT22;27185;52.040;4.490;2023-01-28T13:11:11;7.70;99.90
41447;DHT22;27185;52.040;4.490;2023-01-28T13:13:58;7.70;99.90
41447;DHT22;27185;52.040;4.490;2023-01-28T13:16:44;7.80;99.90
41447;DHT22;27185;52.040;4.490;2023-01-28T13:19:38;7.80;99.90
41447;DHT22;27185;52.040;4.490;2023-01-28T13:22:34;8.10;99.90
41447;DHT22;27185;52.040;4.490;2023-01-28T13:25:24;8.50;99.90
41447;DHT22;27185;52.040;4.490;2023-01-28T13:28:26;9.00;99.90
41447;DHT22;27185;52.040;4.490;2023-01-28T13:31:15;9.60;99.90
41447;DHT22;27185;52.040;4.490;2023-01-28T13:34:06;10.10;99.90
41447;DHT22;27185;52.040;4.490;2023-01-28T13:36:53;10.60;99.90
41447;DHT22;27185;52.040;4.490;2023-01-28T13:39:45;11.00;99.90
41447;DHT22;27185;52.040;4.490;2023-01-28T13:42:32;11.30;99.90
41447;DHT22;27185;52.040;4.490;2023-01-28T13:48:29;11.80;99.90
41447;DHT22;27185;52.040;4.490;2023-01-28T13:51:36;12.20;99.90
41447;DHT22;27185;52.040;4.490;2023-01-28T13:54:24;12.40;99.90
41447;DHT22;27185;52.040;4.490;2023-01-28T14:09:41;13.10;99.90
41447;DHT22;27185;52.040;4.490;2023-01-28T14:18:27;13.10;99.90
41447;DHT22;27185;52.040;4.490;2023-01-28T14:21:16;13.00;99.50
41447;DHT22;27185;52.040;4.490;2023-01-28T14:24:03;13.00;99.90
41447;DHT22;27185;52.040;4.490;2023-01-28T14:29:42;12.90;99.90
41447;DHT22;27185;52.040;4.490;2023-01-28T14:32:30;12.90;99.90
41447;DHT22;27185;52.040;4.490;2023-01-28T14:35:22;12.70;99.90
41447;DHT22;27185;52.040;4.490;2023-01-28T14:38:15;12.50;99.90
41447;DHT22;27185;52.040;4.490;2023-01-28T14:41:03;12.20;99.40
41447;DHT22;27185;52.040;4.490;2023-01-28T14:43:49;11.80;99.90
41447;DHT22;27185;52.040;4.490;2023-01-28T14:46:37;11.40;99.90
41447;DHT22;27185;52.040;4.490;2023-01-28T14:53:05;10.60;99.90
41447;DHT22;27185;52.040;4.490;2023-01-28T14:59:16;9.90;99.90
41447;DHT22;27185;52.040;4.490;2023-01-28T15:02:16;9.70;99.90
41447;DHT22;27185;52.040;4.490;2023-01-28T15:05:13;9.40;99.90
41447;DHT22;27185;52.040;4.490;2023-01-28T15:07:59;9.20;99.90
41447;DHT22;27185;52.040;4.490;2023-01-28T15:10:45;9.10;99.90
41447;DHT22;27185;52.040;4.490;2023-01-28T15:13:35;9.00;99.90
41447;DHT22;27185;52.040;4.490;2023-01-28T15:16:24;8.90;99.90
41447;DHT22;27185;52.040;4.490;2023-01-28T15:19:14;8.80;99.90
41447;DHT22;27185;52.040;4.490;2023-01-28T15:22:07;8.70;99.90
41447;DHT22;27185;52.040;4.490;2023-01-28T15:24:53;8.70;99.90
41447;DHT22;27185;52.040;4.490;2023-01-28T15:27:41;8.60;99.90
41447;DHT22;27185;52.040;4.490;2023-01-28T15:30:30;8.60;99.90
41447;DHT22;27185;52.040;4.490;2023-01-28T15:33:16;8.50;99.90
41447;DHT22;27185;52.040;4.490;2023-01-28T15:36:02;8.50;99.90
41447;DHT22;27185;52.040;4.490;2023-01-28T15:38:49;8.50;99.90
41447;DHT22;27185;52.040;4.490;2023-01-28T15:41:38;8.50;99.90
41447;DHT22;27185;52.040;4.490;2023-01-28T15:44:31;8.40;99.90
41447;DHT22;27185;52.040;4.490;2023-01-28T15:47:23;8.40;99.90
41447;DHT22;27185;52.040;4.490;2023-01-28T15:50:30;8.40;99.90
41447;DHT22;27185;52.040;4.490;2023-01-28T15:53:16;8.40;99.90
41447;DHT22;27185;52.040;4.490;2023-01-28T15:56:07;8.40;99.90
41447;DHT22;27185;52.040;4.490;2023-01-28T15:58:53;8.40;99.90
41447;DHT22;27185;52.040;4.490;2023-01-28T16:01:40;8.30;99.90
41447;DHT22;27185;52.040;4.490;2023-01-28T16:04:27;8.30;99.90
41447;DHT22;27185;52.040;4.490;2023-01-28T16:07:13;8.30;99.90
41447;DHT22;27185;52.040;4.490;2023-01-28T16:10:01;8.30;99.90
41447;DHT22;27185;52.040;4.490;2023-01-28T16:12:52;8.30;99.90
41447;DHT22;27185;52.040;4.490;2023-01-28T16:15:45;8.30;99.90
41447;DHT22;27185;52.040;4.490;2023-01-28T16:18:44;8.30;99.90
41447;DHT22;27185;52.040;4.490;2023-01-28T16:21:43;8.20;99.90
41447;DHT22;27185;52.040;4.490;2023-01-28T16:24:31;8.20;99.90
41447;DHT22;27185;52.040;4.490;2023-01-28T16:27:23;8.20;99.90
41447;DHT22;27185;52.040;4.490;2023-01-28T16:30:10;8.20;99.90
41447;DHT22;27185;52.040;4.490;2023-01-28T16:32:56;8.10;99.90
41447;DHT22;27185;52.040;4.490;2023-01-28T16:35:42;8.10;99.90
41447;DHT22;27185;52.040;4.490;2023-01-28T16:38:29;8.10;99.90
41447;DHT22;27185;52.040;4.490;2023-01-28T16:41:23;8.10;99.90
41447;DHT22;27185;52.040;4.490;2023-01-28T16:44:12;8.10;99.90
41447;DHT22;27185;52.040;4.490;2023-01-28T16:46:58;8.00;99.90
41447;DHT22;27185;52.040;4.490;2023-01-28T16:49:43;8.00;99.90
41447;DHT22;27185;52.040;4.490;2023-01-28T16:52:29;8.00;99.90
41447;DHT22;27185;52.040;4.490;2023-01-28T16:55:17;8.00;99.90
41447;DHT22;27185;52.040;4.490;2023-01-28T16:58:04;8.00;99.90
41447;DHT22;27185;52.040;4.490;2023-01-28T17:00:49;8.00;99.90
41447;DHT22;27185;52.040;4.490;2023-01-28T17:03:35;8.00;99.90
41447;DHT22;27185;52.040;4.490;2023-01-28T17:06:20;8.00;99.90
41447;DHT22;27185;52.040;4.490;2023-01-28T17:09:06;8.00;99.90
41447;DHT22;27185;52.040;4.490;2023-01-28T17:11:52;8.00;99.90
41447;DHT22;27185;52.040;4.490;2023-01-28T17:14:38;8.00;99.90
41447;DHT22;27185;52.040;4.490;2023-01-28T17:17:24;8.00;99.90
41447;DHT22;27185;52.040;4.490;2023-01-28T17:20:11;8.00;99.90
41447;DHT22;27185;52.040;4.490;2023-01-28T17:22:57;8.00;99.90
41447;DHT22;27185;52.040;4.490;2023-01-28T17:25:42;8.00;99.90
41447;DHT22;27185;52.040;4.490;2023-01-28T17:28:28;7.90;99.90
41447;DHT22;27185;52.040;4.490;2023-01-28T17:31:14;7.90;99.90
41447;DHT22;27185;52.040;4.490;2023-01-28T17:33:59;7.90;99.90
41447;DHT22;27185;52.040;4.490;2023-01-28T17:36:46;7.90;99.90
41447;DHT22;27185;52.040;4.490;2023-01-28T17:39:32;8.00;99.90
41447;DHT22;27185;52.040;4.490;2023-01-28T17:42:17;7.90;99.90
41447;DHT22;27185;52.040;4.490;2023-01-28T17:45:03;7.90;99.90
41447;DHT22;27185;52.040;4.490;2023-01-28T17:47:49;7.90;99.90
41447;DHT22;27185;52.040;4.490;2023-01-28T17:50:38;7.90;99.90
41447;DHT22;27185;52.040;4.490;2023-01-28T17:53:23;7.90;99.90
41447;DHT22;27185;52.040;4.490;2023-01-28T17:56:24;7.90;99.90
41447;DHT22;27185;52.040;4.490;2023-01-28T17:59:10;7.90;99.90
41447;DHT22;27185;52.040;4.490;2023-01-28T18:01:58;7.90;99.90
41447;DHT22;27185;52.040;4.490;2023-01-28T18:04:44;7.90;99.90
41447;DHT22;27185;52.040;4.490;2023-01-28T18:07:29;7.80;99.90
41447;DHT22;27185;52.040;4.490;2023-01-28T18:10:16;7.80;99.90
41447;DHT22;27185;52.040;4.490;2023-01-28T18:13:02;7.70;99.90
41447;DHT22;27185;52.040;4.490;2023-01-28T18:15:47;7.70;99.90
41447;DHT22;27185;52.040;4.490;2023-01-28T18:18:33;7.70;99.90
41447;DHT22;27185;52.040;4.490;2023-01-28T18:21:38;7.70;99.90
41447;DHT22;27185;52.040;4.490;2023-01-28T18:24:27;7.70;99.90
41447;DHT22;27185;52.040;4.490;2023-01-28T18:27:13;7.60;99.90
41447;DHT22;27185;52.040;4.490;2023-01-28T18:29:59;7.70;99.90
41447;DHT22;27185;52.040;4.490;2023-01-28T18:32:44;7.70;99.90
41447;DHT22;27185;52.040;4.490;2023-01-28T18:35:30;7.70;99.90
41447;DHT22;27185;52.040;4.490;2023-01-28T18:38:16;7.60;99.90
41447;DHT22;27185;52.040;4.490;2023-01-28T18:41:03;7.60;99.90
41447;DHT22;27185;52.040;4.490;2023-01-28T18:43:48;7.60;99.90
41447;DHT22;27185;52.040;4.490;2023-01-28T18:46:34;7.60;99.90
41447;DHT22;27185;52.040;4.490;2023-01-28T18:49:19;7.60;99.90
41447;DHT22;27185;52.040;4.490;2023-01-28T18:52:05;7.60;99.90
41447;DHT22;27185;52.040;4.490;2023-01-28T18:54:51;7.50;99.90
41447;DHT22;27185;52.040;4.490;2023-01-28T18:57:36;7.50;99.90
41447;DHT22;27185;52.040;4.490;2023-01-28T19:00:22;7.40;99.90
41447;DHT22;27185;52.040;4.490;2023-01-28T19:03:07;7.40;99.90
41447;DHT22;27185;52.040;4.490;2023-01-28T19:05:53;7.40;99.90
41447;DHT22;27185;52.040;4.490;2023-01-28T19:08:39;7.30;99.90
41447;DHT22;27185;52.040;4.490;2023-01-28T19:11:27;7.40;99.90
41447;DHT22;27185;52.040;4.490;2023-01-28T19:14:13;7.40;99.90
41447;DHT22;27185;52.040;4.490;2023-01-28T19:16:59;7.30;99.90
41447;DHT22;27185;52.040;4.490;2023-01-28T19:19:45;7.30;99.90
41447;DHT22;27185;52.040;4.490;2023-01-28T19:22:30;7.30;99.90
41447;DHT22;27185;52.040;4.490;2023-01-28T19:25:17;7.30;99.90
41447;DHT22;27185;52.040;4.490;2023-01-28T19:28:03;7.30;99.90
41447;DHT22;27185;52.040;4.490;2023-01-28T19:30:48;7.30;99.90
41447;DHT22;27185;52.040;4.490;2023-01-28T19:33:34;7.30;99.90
41447;DHT22;27185;52.040;4.490;2023-01-28T19:36:20;7.30;99.90
41447;DHT22;27185;52.040;4.490;2023-01-28T19:39:06;7.30;99.90